sensor_id;sensor_type;location;lat;lon;timestamp;temperature;humidity
31391;DHT22;18022;45.492;11.548;2022-10-16T00:00:43;16.50;99.90
31391;DHT22;18022;45.492;11.548;2022-10-16T00:03:10;16.60;99.90
31391;DHT22;18022;45.492;11.548;2022-10-16T00:05:40;16.60;99.90
31391;DHT22;18022;45.492;11.548;2022-10-16T00:08:08;16.50;99.90
31391;DHT22;18022;45.492;11.548;2022-10-16T00:10:34;16.60;99.90
31391;DHT22;18022;45.492;11.548;2022-10-16T00:13:00;16.60;99.90
31391;DHT22;18022;45.492;11.548;2022-10-16T00:15:26;16.60;99.90
31391;DHT22;18022;45.492;11.548;2022-10-16T00:17:52;16.60;99.90
31391;DHT22;18022;45.492;11.548;2022-10-16T00:20:18;16.60;99.90
31391;DHT22;18022;45.492;11.548;2022-10-16T00:22:44;16.60;99.90
31391;DHT22;18022;45.492;11.548;2022-10-16T00:25:09;16.60;99.90
31391;DHT22;18022;45.492;11.548;2022-10-16T00:27:35;16.70;99.90
31391;DHT22;18022;45.492;11.548;2022-10-16T00:30:01;16.70;99.90
31391;DHT22;18022;45.492;11.548;2022-10-16T00:32:27;16.70;99.90
31391;DHT22;18022;45.492;11.548;2022-10-16T00:34:52;16.70;99.90
31391;DHT22;18022;45.492;11.548;2022-10-16T00:37:20;16.60;99.90
31391;DHT22;18022;45.492;11.548;2022-10-16T00:39:46;16.60;99.90
31391;DHT22;18022;45.492;11.548;2022-10-16T00:42:16;16.60;99.90
31391;DHT22;18022;45.492;11.548;2022-10-16T00:44:49;16.60;99.90
31391;DHT22;18022;45.492;11.548;2022-10-16T00:47:34;16.50;99.90
31391;DHT22;18022;45.492;11.548;2022-10-16T00:50:09;16.60;99.90
31391;DHT22;18022;45.492;11.548;2022-10-16T00:52:37;16.60;99.90
31391;DHT22;18022;45.492;11.548;2022-10-16T00:55:06;16.50;99.90
31391;DHT22;18022;45.492;11.548;2022-10-16T00:57:32;16.50;99.90
31391;DHT22;18022;45.492;11.548;2022-10-16T00:59:58;16.50;99.90
31391;DHT22;18022;45.492;11.548;2022-10-16T01:02:24;16.60;99.90
31391;DHT22;18022;45.492;11.548;2022-10-16T01:04:52;16.60;99.90
31391;DHT22;18022;45.492;11.548;2022-10-16T01:15:42;16.70;99.90
31391;DHT22;18022;45.492;11.548;2022-10-16T01:21:02;16.60;99.90
31391;DHT22;18022;45.492;11.548;2022-10-16T01:31:11;16.50;99.90
31391;DHT22;18022;45.492;11.548;2022-10-16T01:33:45;16.50;99.90
31391;DHT22;18022;45.492;11.548;2022-10-16T01:36:25;16.40;99.90
31391;DHT22;18022;45.492;11.548;2022-10-16T01:38:53;16.40;99.90
31391;DHT22;18022;45.492;11.548;2022-10-16T01:41:32;16.40;99.90
31391;DHT22;18022;45.492;11.548;2022-10-16T01:46:26;16.30;99.90
31391;DHT22;18022;45.492;11.548;2022-10-16T01:48:52;16.30;99.90
31391;DHT22;18022;45.492;11.548;2022-10-16T01:51:19;16.30;99.90
31391;DHT22;18022;45.492;11.548;2022-10-16T01:53:53;16.40;99.90
31391;DHT22;18022;45.492;11.548;2022-10-16T01:56:20;16.40;99.90
31391;DHT22;18022;45.492;11.548;2022-10-16T01:59:10;16.40;99.90
31391;DHT22;18022;45.492;11.548;2022-10-16T02:01:40;16.40;99.90
31391;DHT22;18022;45.492;11.548;2022-10-16T02:04:16;16.40;99.90
31391;DHT22;18022;45.492;11.548;2022-10-16T02:06:43;16.40;99.90
31391;DHT22;18022;45.492;11.548;2022-10-16T02:09:09;16.40;99.90
31391;DHT22;18022;45.492;11.548;2022-10-16T02:11:35;16.40;99.90
31391;DHT22;18022;45.492;11.548;2022-10-16T02:14:05;16.40;99.90
31391;DHT22;18022;45.492;11.548;2022-10-16T02:16:39;16.40;99.90
31391;DHT22;18022;45.492;11.548;2022-10-16T02:19:06;16.30;99.90
31391;DHT22;18022;45.492;11.548;2022-10-16T02:28:00;16.30;99.90
31391;DHT22;18022;45.492;11.548;2022-10-16T02:30:29;16.30;99.90
31391;DHT22;18022;45.492;11.548;2022-10-16T02:32:57;16.30;99.90
31391;DHT22;18022;45.492;11.548;2022-10-16T02:35:24;16.30;99.90
31391;DHT22;18022;45.492;11.548;2022-10-16T02:37:51;16.30;99.90
31391;DHT22;18022;45.492;11.548;2022-10-16T02:40:17;16.30;99.90
31391;DHT22;18022;45.492;11.548;2022-10-16T02:42:43;16.30;99.90
31391;DHT22;18022;45.492;11.548;2022-10-16T02:45:10;16.30;99.90
31391;DHT22;18022;45.492;11.548;2022-10-16T02:47:36;16.20;99.90
31391;DHT22;18022;45.492;11.548;2022-10-16T02:50:02;16.30;99.90
31391;DHT22;18022;45.492;11.548;2022-10-16T02:52:28;16.30;99.90
31391;DHT22;18022;45.492;11.548;2022-10-16T02:54:54;16.20;99.90
31391;DHT22;18022;45.492;11.548;2022-10-16T02:57:19;16.30;99.90
31391;DHT22;18022;45.492;11.548;2022-10-16T02:59:45;16.20;99.90
31391;DHT22;18022;45.492;11.548;2022-10-16T03:02:11;16.20;99.90
31391;DHT22;18022;45.492;11.548;2022-10-16T03:04:37;16.30;99.90
31391;DHT22;18022;45.492;11.548;2022-10-16T03:07:03;16.30;99.90
31391;DHT22;18022;45.492;11.548;2022-10-16T03:09:29;16.40;99.90
31391;DHT22;18022;45.492;11.548;2022-10-16T03:11:55;16.30;99.90
31391;DHT22;18022;45.492;11.548;2022-10-16T03:14:21;16.20;99.90
31391;DHT22;18022;45.492;11.548;2022-10-16T03:16:46;16.20;99.90
31391;DHT22;18022;45.492;11.548;2022-10-16T03:19:12;16.10;99.90
31391;DHT22;18022;45.492;11.548;2022-10-16T03:21:38;16.10;99.90
31391;DHT22;18022;45.492;11.548;2022-10-16T03:24:04;16.10;99.90
31391;DHT22;18022;45.492;11.548;2022-10-16T03:26:29;16.20;99.90
31391;DHT22;18022;45.492;11.548;2022-10-16T03:28:55;16.20;99.90
31391;DHT22;18022;45.492;11.548;2022-10-16T03:31:21;16.30;99.90
31391;DHT22;18022;45.492;11.548;2022-10-16T03:33:47;16.40;99.90
31391;DHT22;18022;45.492;11.548;2022-10-16T03:36:13;16.40;99.90
31391;DHT22;18022;45.492;11.548;2022-10-16T03:38:38;16.30;99.90
31391;DHT22;18022;45.492;11.548;2022-10-16T03:41:04;16.30;99.90
31391;DHT22;18022;45.492;11.548;2022-10-16T03:43:30;16.40;99.90
31391;DHT22;18022;45.492;11.548;2022-10-16T03:45:55;16.30;99.90
31391;DHT22;18022;45.492;11.548;2022-10-16T03:48:21;16.30;99.90
31391;DHT22;18022;45.492;11.548;2022-10-16T03:50:47;16.20;99.90
31391;DHT22;18022;45.492;11.548;2022-10-16T03:53:14;16.20;99.90
31391;DHT22;18022;45.492;11.548;2022-10-16T03:55:42;16.10;99.90
31391;DHT22;18022;45.492;11.548;2022-10-16T03:58:07;16.00;99.90
31391;DHT22;18022;45.492;11.548;2022-10-16T04:00:33;16.00;99.90
31391;DHT22;18022;45.492;11.548;2022-10-16T04:03:00;16.00;99.90
31391;DHT22;18022;45.492;11.548;2022-10-16T04:05:26;16.00;99.90
31391;DHT22;18022;45.492;11.548;2022-10-16T04:07:52;16.00;99.90
31391;DHT22;18022;45.492;11.548;2022-10-16T04:10:18;16.00;99.90
31391;DHT22;18022;45.492;11.548;2022-10-16T04:12:44;16.00;99.90
31391;DHT22;18022;45.492;11.548;2022-10-16T04:15:10;16.00;99.90
31391;DHT22;18022;45.492;11.548;2022-10-16T04:17:35;16.00;99.90
31391;DHT22;18022;45.492;11.548;2022-10-16T04:20:01;16.00;99.90
31391;DHT22;18022;45.492;11.548;2022-10-16T04:22:27;16.00;99.90
31391;DHT22;18022;45.492;11.548;2022-10-16T04:24:53;16.00;99.90
31391;DHT22;18022;45.492;11.548;2022-10-16T04:27:19;16.10;99.90
31391;DHT22;18022;45.492;11.548;2022-10-16T04:29:44;16.10;99.90
31391;DHT22;18022;45.492;11.548;2022-10-16T04:32:10;16.00;99.90
31391;DHT22;18022;45.492;11.548;2022-10-16T04:34:36;16.00;99.90
31391;DHT22;18022;45.492;11.548;2022-10-16T04:37:03;15.90;99.90
31391;DHT22;18022;45.492;11.548;2022-10-16T04:39:29;15.90;99.90
31391;DHT22;18022;45.492;11.548;2022-10-16T04:41:54;15.90;99.90
31391;DHT22;18022;45.492;11.548;2022-10-16T04:44:20;15.90;99.90
31391;DHT22;18022;45.492;11.548;2022-10-16T04:46:46;15.90;99.90
31391;DHT22;18022;45.492;11.548;2022-10-16T04:49:11;15.80;99.90
31391;DHT22;18022;45.492;11.548;2022-10-16T04:51:37;15.80;99.90
31391;DHT22;18022;45.492;11.548;2022-10-16T04:54:03;15.80;99.90
31391;DHT22;18022;45.492;11.548;2022-10-16T04:56:28;15.90;99.90
31391;DHT22;18022;45.492;11.548;2022-10-16T04:58:54;15.90;99.90
31391;DHT22;18022;45.492;11.548;2022-10-16T05:01:20;15.90;99.90
31391;DHT22;18022;45.492;11.548;2022-10-16T05:03:45;15.80;99.90
31391;DHT22;18022;45.492;11.548;2022-10-16T05:06:11;15.80;99.90
31391;DHT22;18022;45.492;11.548;2022-10-16T05:08:37;15.80;99.90
31391;DHT22;18022;45.492;11.548;2022-10-16T05:11:02;15.80;99.90
31391;DHT22;18022;45.492;11.548;2022-10-16T05:13:28;15.90;99.90
31391;DHT22;18022;45.492;11.548;2022-10-16T05:15:54;15.80;99.90
31391;DHT22;18022;45.492;11.548;2022-10-16T05:18:20;15.90;99.90
31391;DHT22;18022;45.492;11.548;2022-10-16T05:20:46;15.80;99.90
31391;DHT22;18022;45.492;11.548;2022-10-16T05:23:12;15.80;99.90
31391;DHT22;18022;45.492;11.548;2022-10-16T05:25:37;15.90;99.90
31391;DHT22;18022;45.492;11.548;2022-10-16T05:28:04;15.80;99.90
31391;DHT22;18022;45.492;11.548;2022-10-16T05:30:29;15.80;99.90
31391;DHT22;18022;45.492;11.548;2022-10-16T05:32:55;15.70;99.90
31391;DHT22;18022;45.492;11.548;2022-10-16T05:35:21;15.70;99.90
31391;DHT22;18022;45.492;11.548;2022-10-16T05:37:47;15.60;99.90
31391;DHT22;18022;45.492;11.548;2022-10-16T05:40:14;15.70;99.90
31391;DHT22;18022;45.492;11.548;2022-10-16T05:42:40;15.70;99.90
31391;DHT22;18022;45.492;11.548;2022-10-16T05:45:09;15.60;99.90
31391;DHT22;18022;45.492;11.548;2022-10-16T05:47:35;15.70;99.90
31391;DHT22;18022;45.492;11.548;2022-10-16T05:50:01;15.70;99.90
31391;DHT22;18022;45.492;11.548;2022-10-16T05:52:27;15.80;99.90
31391;DHT22;18022;45.492;11.548;2022-10-16T05:54:53;15.80;99.90
31391;DHT22;18022;45.492;11.548;2022-10-16T05:57:18;15.80;99.90
31391;DHT22;18022;45.492;11.548;2022-10-16T05:59:44;15.90;99.90
31391;DHT22;18022;45.492;11.548;2022-10-16T06:02:13;15.80;99.90
31391;DHT22;18022;45.492;11.548;2022-10-16T06:04:39;15.90;99.90
31391;DHT22;18022;45.492;11.548;2022-10-16T06:07:05;15.80;99.90
31391;DHT22;18022;45.492;11.548;2022-10-16T06:09:30;15.90;99.90
31391;DHT22;18022;45.492;11.548;2022-10-16T06:11:56;15.90;99.90
31391;DHT22;18022;45.492;11.548;2022-10-16T06:14:22;15.90;99.90
31391;DHT22;18022;45.492;11.548;2022-10-16T06:16:48;15.90;99.90
31391;DHT22;18022;45.492;11.548;2022-10-16T06:19:14;15.80;99.90
31391;DHT22;18022;45.492;11.548;2022-10-16T06:21:40;15.80;99.90
31391;DHT22;18022;45.492;11.548;2022-10-16T06:24:06;15.80;99.90
31391;DHT22;18022;45.492;11.548;2022-10-16T06:26:32;15.90;99.90
31391;DHT22;18022;45.492;11.548;2022-10-16T06:28:59;15.90;99.90
31391;DHT22;18022;45.492;11.548;2022-10-16T06:31:26;15.90;99.90
31391;DHT22;18022;45.492;11.548;2022-10-16T06:33:54;15.80;99.90
31391;DHT22;18022;45.492;11.548;2022-10-16T06:36:21;15.80;99.90
31391;DHT22;18022;45.492;11.548;2022-10-16T06:38:47;15.90;99.90
31391;DHT22;18022;45.492;11.548;2022-10-16T06:41:16;15.90;99.90
31391;DHT22;18022;45.492;11.548;2022-10-16T06:43:43;16.00;99.90
31391;DHT22;18022;45.492;11.548;2022-10-16T06:46:11;16.00;99.90
31391;DHT22;18022;45.492;11.548;2022-10-16T06:48:38;16.10;99.90
31391;DHT22;18022;45.492;11.548;2022-10-16T06:51:07;16.10;99.90
31391;DHT22;18022;45.492;11.548;2022-10-16T06:53:35;16.10;99.90
31391;DHT22;18022;45.492;11.548;2022-10-16T06:56:18;16.10;99.90
31391;DHT22;18022;45.492;11.548;2022-10-16T06:58:45;16.20;99.90
31391;DHT22;18022;45.492;11.548;2022-10-16T07:01:11;16.20;99.90
31391;DHT22;18022;45.492;11.548;2022-10-16T07:03:39;16.10;99.90
31391;DHT22;18022;45.492;11.548;2022-10-16T07:06:06;16.20;99.90
31391;DHT22;18022;45.492;11.548;2022-10-16T07:08:36;16.20;99.90
31391;DHT22;18022;45.492;11.548;2022-10-16T07:11:05;16.20;99.90
31391;DHT22;18022;45.492;11.548;2022-10-16T07:13:33;16.20;99.90
31391;DHT22;18022;45.492;11.548;2022-10-16T07:16:11;16.20;99.90
31391;DHT22;18022;45.492;11.548;2022-10-16T07:18:38;16.30;99.90
31391;DHT22;18022;45.492;11.548;2022-10-16T07:21:12;16.30;99.90
31391;DHT22;18022;45.492;11.548;2022-10-16T07:23:38;16.40;99.90
31391;DHT22;18022;45.492;11.548;2022-10-16T07:26:05;16.50;99.90
31391;DHT22;18022;45.492;11.548;2022-10-16T07:28:31;16.60;99.90
31391;DHT22;18022;45.492;11.548;2022-10-16T07:31:05;16.50;99.90
31391;DHT22;18022;45.492;11.548;2022-10-16T07:33:33;16.60;99.90
31391;DHT22;18022;45.492;11.548;2022-10-16T07:35:59;16.70;99.90
31391;DHT22;18022;45.492;11.548;2022-10-16T07:38:24;16.90;99.90
31391;DHT22;18022;45.492;11.548;2022-10-16T07:41:04;17.00;99.90
31391;DHT22;18022;45.492;11.548;2022-10-16T07:43:31;17.10;99.90
31391;DHT22;18022;45.492;11.548;2022-10-16T07:45:57;17.30;99.90
31391;DHT22;18022;45.492;11.548;2022-10-16T07:48:23;17.40;99.90
31391;DHT22;18022;45.492;11.548;2022-10-16T07:50:49;17.50;99.90
31391;DHT22;18022;45.492;11.548;2022-10-16T07:53:15;17.60;99.90
31391;DHT22;18022;45.492;11.548;2022-10-16T07:55:41;17.70;99.90
31391;DHT22;18022;45.492;11.548;2022-10-16T07:58:07;17.60;99.90
31391;DHT22;18022;45.492;11.548;2022-10-16T08:00:33;17.60;99.90
31391;DHT22;18022;45.492;11.548;2022-10-16T08:03:00;17.60;99.90
31391;DHT22;18022;45.492;11.548;2022-10-16T08:05:30;17.60;99.90
31391;DHT22;18022;45.492;11.548;2022-10-16T08:07:57;17.70;99.90
31391;DHT22;18022;45.492;11.548;2022-10-16T08:10:25;17.80;99.90
31391;DHT22;18022;45.492;11.548;2022-10-16T08:12:52;17.70;99.90
31391;DHT22;18022;45.492;11.548;2022-10-16T08:15:19;17.90;99.90
31391;DHT22;18022;45.492;11.548;2022-10-16T08:17:53;17.90;99.90
31391;DHT22;18022;45.492;11.548;2022-10-16T08:20:19;18.00;99.90
31391;DHT22;18022;45.492;11.548;2022-10-16T08:22:45;18.00;99.90
31391;DHT22;18022;45.492;11.548;2022-10-16T08:25:10;17.90;99.90
31391;DHT22;18022;45.492;11.548;2022-10-16T08:27:36;17.90;99.90
31391;DHT22;18022;45.492;11.548;2022-10-16T08:30:02;18.00;99.90
31391;DHT22;18022;45.492;11.548;2022-10-16T08:32:27;18.00;99.90
31391;DHT22;18022;45.492;11.548;2022-10-16T08:34:53;18.00;99.90
31391;DHT22;18022;45.492;11.548;2022-10-16T08:37:19;18.10;99.90
31391;DHT22;18022;45.492;11.548;2022-10-16T08:39:44;18.20;99.90
31391;DHT22;18022;45.492;11.548;2022-10-16T08:50:02;18.50;99.90
31391;DHT22;18022;45.492;11.548;2022-10-16T08:52:35;18.40;99.90
31391;DHT22;18022;45.492;11.548;2022-10-16T08:55:04;18.50;99.90
31391;DHT22;18022;45.492;11.548;2022-10-16T08:57:30;18.60;99.90
31391;DHT22;18022;45.492;11.548;2022-10-16T09:00:12;18.70;99.90
31391;DHT22;18022;45.492;11.548;2022-10-16T09:02:44;18.80;99.90
31391;DHT22;18022;45.492;11.548;2022-10-16T09:23:44;19.20;99.90
31391;DHT22;18022;45.492;11.548;2022-10-16T09:26:12;19.10;99.90
31391;DHT22;18022;45.492;11.548;2022-10-16T09:28:39;19.20;99.90
31391;DHT22;18022;45.492;11.548;2022-10-16T09:31:07;19.30;99.90
31391;DHT22;18022;45.492;11.548;2022-10-16T09:33:38;19.50;99.90
31391;DHT22;18022;45.492;11.548;2022-10-16T09:36:05;19.50;99.90
31391;DHT22;18022;45.492;11.548;2022-10-16T09:38:34;19.60;99.90
31391;DHT22;18022;45.492;11.548;2022-10-16T09:41:19;19.80;99.90
31391;DHT22;18022;45.492;11.548;2022-10-16T09:43:49;20.10;99.90
31391;DHT22;18022;45.492;11.548;2022-10-16T09:46:36;20.10;99.90
31391;DHT22;18022;45.492;11.548;2022-10-16T09:49:16;20.20;99.90
31391;DHT22;18022;45.492;11.548;2022-10-16T09:51:44;20.10;99.90
31391;DHT22;18022;45.492;11.548;2022-10-16T09:54:18;20.00;99.90
31391;DHT22;18022;45.492;11.548;2022-10-16T09:56:44;20.30;99.90
31391;DHT22;18022;45.492;11.548;2022-10-16T09:59:22;20.20;99.90
31391;DHT22;18022;45.492;11.548;2022-10-16T10:01:54;20.30;99.90
31391;DHT22;18022;45.492;11.548;2022-10-16T10:04:23;20.60;99.90
31391;DHT22;18022;45.492;11.548;2022-10-16T10:06:51;20.70;99.90
31391;DHT22;18022;45.492;11.548;2022-10-16T10:11:58;20.80;99.90
31391;DHT22;18022;45.492;11.548;2022-10-16T10:14:31;20.80;99.90
31391;DHT22;18022;45.492;11.548;2022-10-16T10:19:59;20.90;99.90
31391;DHT22;18022;45.492;11.548;2022-10-16T10:22:24;20.80;99.90
31391;DHT22;18022;45.492;11.548;2022-10-16T10:25:45;21.00;99.90
31391;DHT22;18022;45.492;11.548;2022-10-16T10:36:28;21.10;99.90
31391;DHT22;18022;45.492;11.548;2022-10-16T10:47:12;21.10;99.90
31391;DHT22;18022;45.492;11.548;2022-10-16T10:55:42;21.40;99.90
31391;DHT22;18022;45.492;11.548;2022-10-16T11:07:04;21.50;99.90
31391;DHT22;18022;45.492;11.548;2022-10-16T11:09:35;21.60;99.90
31391;DHT22;18022;45.492;11.548;2022-10-16T11:12:26;21.60;99.90
31391;DHT22;18022;45.492;11.548;2022-10-16T11:15:05;21.60;99.90
31391;DHT22;18022;45.492;11.548;2022-10-16T11:17:48;21.70;99.90
31391;DHT22;18022;45.492;11.548;2022-10-16T11:20:56;21.50;99.90
31391;DHT22;18022;45.492;11.548;2022-10-16T11:23:18;21.50;99.90
31391;DHT22;18022;45.492;11.548;2022-10-16T11:25:47;21.70;99.90
31391;DHT22;18022;45.492;11.548;2022-10-16T11:31:17;22.00;99.90
31391;DHT22;18022;45.492;11.548;2022-10-16T11:33:49;22.20;99.90
31391;DHT22;18022;45.492;11.548;2022-10-16T11:36:25;22.00;99.90
31391;DHT22;18022;45.492;11.548;2022-10-16T11:41:58;22.00;99.90
31391;DHT22;18022;45.492;11.548;2022-10-16T11:47:34;21.90;99.90
31391;DHT22;18022;45.492;11.548;2022-10-16T11:53:03;22.10;99.90
31391;DHT22;18022;45.492;11.548;2022-10-16T11:55:40;22.30;99.90
31391;DHT22;18022;45.492;11.548;2022-10-16T11:58:20;22.30;99.90
31391;DHT22;18022;45.492;11.548;2022-10-16T12:03:53;22.50;99.90
31391;DHT22;18022;45.492;11.548;2022-10-16T12:06:30;22.50;99.90
31391;DHT22;18022;45.492;11.548;2022-10-16T12:08:59;22.30;99.90
31391;DHT22;18022;45.492;11.548;2022-10-16T12:17:03;22.20;99.90
31391;DHT22;18022;45.492;11.548;2022-10-16T12:19:32;22.10;99.90
31391;DHT22;18022;45.492;11.548;2022-10-16T12:22:00;22.20;99.90
31391;DHT22;18022;45.492;11.548;2022-10-16T12:24:36;22.20;99.90
31391;DHT22;18022;45.492;11.548;2022-10-16T12:27:19;22.20;99.90
31391;DHT22;18022;45.492;11.548;2022-10-16T12:29:46;22.20;99.90
31391;DHT22;18022;45.492;11.548;2022-10-16T12:34:54;22.10;99.90
31391;DHT22;18022;45.492;11.548;2022-10-16T12:37:23;22.00;99.90
31391;DHT22;18022;45.492;11.548;2022-10-16T12:39:50;21.90;99.90
31391;DHT22;18022;45.492;11.548;2022-10-16T12:42:21;21.90;99.90
31391;DHT22;18022;45.492;11.548;2022-10-16T12:44:47;21.90;99.90
31391;DHT22;18022;45.492;11.548;2022-10-16T12:47:21;21.80;99.90
31391;DHT22;18022;45.492;11.548;2022-10-16T12:49:53;21.90;99.90
31391;DHT22;18022;45.492;11.548;2022-10-16T12:52:35;22.00;99.90
31391;DHT22;18022;45.492;11.548;2022-10-16T12:55:02;22.00;99.90
31391;DHT22;18022;45.492;11.548;2022-10-16T13:00:50;22.10;99.90
31391;DHT22;18022;45.492;11.548;2022-10-16T13:05:59;22.40;99.90
31391;DHT22;18022;45.492;11.548;2022-10-16T13:14:02;22.60;99.90
31391;DHT22;18022;45.492;11.548;2022-10-16T13:30:27;22.60;99.90
31391;DHT22;18022;45.492;11.548;2022-10-16T13:35:34;22.80;99.90
31391;DHT22;18022;45.492;11.548;2022-10-16T13:38:15;22.70;99.90
31391;DHT22;18022;45.492;11.548;2022-10-16T13:43:45;22.90;99.90
31391;DHT22;18022;45.492;11.548;2022-10-16T13:46:23;22.90;99.90
31391;DHT22;18022;45.492;11.548;2022-10-16T13:49:10;22.90;99.90
31391;DHT22;18022;45.492;11.548;2022-10-16T13:51:37;22.90;99.90
31391;DHT22;18022;45.492;11.548;2022-10-16T13:54:03;22.80;99.90
31391;DHT22;18022;45.492;11.548;2022-10-16T13:56:31;22.70;99.90
31391;DHT22;18022;45.492;11.548;2022-10-16T13:59:07;22.40;99.90
31391;DHT22;18022;45.492;11.548;2022-10-16T14:01:47;22.50;99.90
31391;DHT22;18022;45.492;11.548;2022-10-16T14:04:16;22.40;99.90
31391;DHT22;18022;45.492;11.548;2022-10-16T14:06:44;22.40;99.90
31391;DHT22;18022;45.492;11.548;2022-10-16T14:14:23;22.10;99.90
31391;DHT22;18022;45.492;11.548;2022-10-16T14:16:49;22.00;99.90
31391;DHT22;18022;45.492;11.548;2022-10-16T14:19:22;21.90;99.90
31391;DHT22;18022;45.492;11.548;2022-10-16T14:21:53;21.90;99.90
31391;DHT22;18022;45.492;11.548;2022-10-16T14:26:57;21.80;99.90
31391;DHT22;18022;45.492;11.548;2022-10-16T14:29:25;21.70;99.90
31391;DHT22;18022;45.492;11.548;2022-10-16T14:32:20;21.80;99.90
31391;DHT22;18022;45.492;11.548;2022-10-16T14:34:53;21.80;99.90
31391;DHT22;18022;45.492;11.548;2022-10-16T14:37:27;21.80;99.90
31391;DHT22;18022;45.492;11.548;2022-10-16T14:39:55;21.80;99.90
31391;DHT22;18022;45.492;11.548;2022-10-16T14:42:23;21.80;99.90
31391;DHT22;18022;45.492;11.548;2022-10-16T14:44:51;21.90;99.90
31391;DHT22;18022;45.492;11.548;2022-10-16T14:47:20;21.90;99.90
31391;DHT22;18022;45.492;11.548;2022-10-16T14:49:50;21.90;99.90
31391;DHT22;18022;45.492;11.548;2022-10-16T14:52:16;21.80;99.90
31391;DHT22;18022;45.492;11.548;2022-10-16T14:54:42;21.80;99.90
31391;DHT22;18022;45.492;11.548;2022-10-16T14:57:19;21.80;99.90
31391;DHT22;18022;45.492;11.548;2022-10-16T14:59:46;21.80;99.90
31391;DHT22;18022;45.492;11.548;2022-10-16T15:02:20;21.70;99.90
31391;DHT22;18022;45.492;11.548;2022-10-16T15:04:48;21.80;99.90
31391;DHT22;18022;45.492;11.548;2022-10-16T15:07:14;21.80;99.90
31391;DHT22;18022;45.492;11.548;2022-10-16T15:09:40;21.80;99.90
31391;DHT22;18022;45.492;11.548;2022-10-16T15:12:06;21.70;99.90
31391;DHT22;18022;45.492;11.548;2022-10-16T15:14:31;21.70;99.90
31391;DHT22;18022;45.492;11.548;2022-10-16T15:16:58;21.70;99.90
31391;DHT22;18022;45.492;11.548;2022-10-16T15:19:23;21.70;99.90
31391;DHT22;18022;45.492;11.548;2022-10-16T15:21:49;21.70;99.90
31391;DHT22;18022;45.492;11.548;2022-10-16T15:24:15;21.60;99.90
31391;DHT22;18022;45.492;11.548;2022-10-16T15:26:41;21.50;99.90
31391;DHT22;18022;45.492;11.548;2022-10-16T15:29:07;21.40;99.90
31391;DHT22;18022;45.492;11.548;2022-10-16T15:31:33;21.40;99.90
31391;DHT22;18022;45.492;11.548;2022-10-16T15:33:59;21.30;99.90
31391;DHT22;18022;45.492;11.548;2022-10-16T15:36:32;21.30;99.90
31391;DHT22;18022;45.492;11.548;2022-10-16T15:39:03;21.30;99.90
31391;DHT22;18022;45.492;11.548;2022-10-16T15:41:29;21.30;99.90
31391;DHT22;18022;45.492;11.548;2022-10-16T15:43:55;21.30;99.90
31391;DHT22;18022;45.492;11.548;2022-10-16T15:46:22;21.20;99.90
31391;DHT22;18022;45.492;11.548;2022-10-16T15:48:50;21.10;99.90
31391;DHT22;18022;45.492;11.548;2022-10-16T15:51:16;21.10;99.90
31391;DHT22;18022;45.492;11.548;2022-10-16T15:53:43;21.10;99.90
31391;DHT22;18022;45.492;11.548;2022-10-16T15:56:10;21.00;99.90
31391;DHT22;18022;45.492;11.548;2022-10-16T15:58:36;21.00;99.90
31391;DHT22;18022;45.492;11.548;2022-10-16T16:01:03;20.90;99.90
31391;DHT22;18022;45.492;11.548;2022-10-16T16:03:30;20.90;99.90
31391;DHT22;18022;45.492;11.548;2022-10-16T16:05:57;20.90;99.90
31391;DHT22;18022;45.492;11.548;2022-10-16T16:08:23;20.90;99.90
31391;DHT22;18022;45.492;11.548;2022-10-16T16:11:04;20.80;99.90
31391;DHT22;18022;45.492;11.548;2022-10-16T16:13:30;20.80;99.90
31391;DHT22;18022;45.492;11.548;2022-10-16T16:15:56;20.70;99.90
31391;DHT22;18022;45.492;11.548;2022-10-16T16:18:22;20.60;99.90
31391;DHT22;18022;45.492;11.548;2022-10-16T16:20:49;20.50;99.90
31391;DHT22;18022;45.492;11.548;2022-10-16T16:23:15;20.40;99.90
31391;DHT22;18022;45.492;11.548;2022-10-16T16:25:41;20.40;99.90
31391;DHT22;18022;45.492;11.548;2022-10-16T16:28:07;20.30;99.90
31391;DHT22;18022;45.492;11.548;2022-10-16T16:30:36;20.30;99.90
31391;DHT22;18022;45.492;11.548;2022-10-16T16:33:02;20.20;99.90
31391;DHT22;18022;45.492;11.548;2022-10-16T16:35:28;20.00;99.90
31391;DHT22;18022;45.492;11.548;2022-10-16T16:37:53;19.90;99.90
31391;DHT22;18022;45.492;11.548;2022-10-16T16:40:19;19.80;99.90
31391;DHT22;18022;45.492;11.548;2022-10-16T16:42:48;19.70;99.90
31391;DHT22;18022;45.492;11.548;2022-10-16T16:45:14;19.70;99.90
31391;DHT22;18022;45.492;11.548;2022-10-16T16:47:39;19.60;99.90
31391;DHT22;18022;45.492;11.548;2022-10-16T16:50:06;19.50;99.90
31391;DHT22;18022;45.492;11.548;2022-10-16T16:52:33;19.40;99.90
31391;DHT22;18022;45.492;11.548;2022-10-16T16:54:59;19.30;99.90
31391;DHT22;18022;45.492;11.548;2022-10-16T16:57:25;19.20;99.90
31391;DHT22;18022;45.492;11.548;2022-10-16T16:59:51;19.20;99.90
31391;DHT22;18022;45.492;11.548;2022-10-16T17:02:17;19.20;99.90
31391;DHT22;18022;45.492;11.548;2022-10-16T17:04:43;19.20;99.90
31391;DHT22;18022;45.492;11.548;2022-10-16T17:07:09;19.10;99.90
31391;DHT22;18022;45.492;11.548;2022-10-16T17:09:34;19.00;99.90
31391;DHT22;18022;45.492;11.548;2022-10-16T17:12:00;18.90;99.90
31391;DHT22;18022;45.492;11.548;2022-10-16T17:14:26;18.80;99.90
31391;DHT22;18022;45.492;11.548;2022-10-16T17:16:52;18.80;99.90
31391;DHT22;18022;45.492;11.548;2022-10-16T17:19:19;18.70;99.90
31391;DHT22;18022;45.492;11.548;2022-10-16T17:21:47;18.70;99.90
31391;DHT22;18022;45.492;11.548;2022-10-16T17:24:13;18.70;99.90
31391;DHT22;18022;45.492;11.548;2022-10-16T17:26:39;18.70;99.90
31391;DHT22;18022;45.492;11.548;2022-10-16T17:29:11;18.60;99.90
31391;DHT22;18022;45.492;11.548;2022-10-16T17:31:37;18.50;99.90
31391;DHT22;18022;45.492;11.548;2022-10-16T17:34:05;18.50;99.90
31391;DHT22;18022;45.492;11.548;2022-10-16T17:36:34;18.40;99.90
31391;DHT22;18022;45.492;11.548;2022-10-16T17:39:05;18.30;99.90
31391;DHT22;18022;45.492;11.548;2022-10-16T17:41:32;18.30;99.90
31391;DHT22;18022;45.492;11.548;2022-10-16T17:43:58;18.30;99.90
31391;DHT22;18022;45.492;11.548;2022-10-16T17:46:24;18.30;99.90
31391;DHT22;18022;45.492;11.548;2022-10-16T17:48:52;18.50;99.90
31391;DHT22;18022;45.492;11.548;2022-10-16T17:51:26;18.50;99.90
31391;DHT22;18022;45.492;11.548;2022-10-16T17:53:54;18.40;99.90
31391;DHT22;18022;45.492;11.548;2022-10-16T17:56:21;18.30;99.90